Time;durP1;ratioP1;P1;durP2;ratioP2;P2;SDS_P1;SDS_P2;PMS_P1;PMS_P2;Temp;Humidity;BMP_temperature;BMP_pressure;BME280_temperature;BME280_humidity;BME280_pressure;Samples;Min_cycle;Max_cycle;Signal;HPM_P1;HPM_P2
2023/04/09 00:02:25;;;;;;;3.63;2.35;;;;;;;14.08;46.34;96410.69;5035000;28;20122;-30
2023/04/09 00:04:52;;;;;;;4.85;2.58;;;;;;;14.08;46.53;96408.72;5034722;28;20397;-29
2023/04/09 00:07:17;;;;;;;3.67;2.25;;;;;;;13.93;46.94;96410.47;5034553;28;20037;-30
2023/04/09 00:09:42;;;;;;;3.55;2.70;;;;;;;13.96;47.03;96421.25;5041874;28;20028;-31
2023/04/09 00:12:08;;;;;;;3.05;2.47;;;;;;;13.91;47.25;96419.09;5047484;28;20020;-30
2023/04/09 00:14:33;;;;;;;4.07;2.30;;;;;;;13.98;46.67;96410.63;5034940;28;20072;-31
2023/04/09 00:16:59;;;;;;;5.18;2.75;;;;;;;13.92;47.13;96412.44;5036384;28;20049;-32
2023/04/09 00:19:24;;;;;;;4.65;2.45;;;;;;;14.03;46.86;96409.28;5037550;28;20025;-31
2023/04/09 00:21:51;;;;;;;3.03;2.10;;;;;;;14.22;46.44;96404.63;5034244;28;20029;-30
2023/04/09 00:24:18;;;;;;;5.05;2.42;;;;;;;13.97;46.80;96413.81;5039391;28;20484;-30
2023/04/09 00:26:43;;;;;;;4.85;2.25;;;;;;;14.09;46.38;96412.19;5036174;28;20029;-31
2023/04/09 00:29:09;;;;;;;4.97;2.47;;;;;;;13.89;47.13;96405.13;5041157;28;20027;-31
2023/04/09 00:31:34;;;;;;;3.42;2.53;;;;;;;13.77;47.76;96411.44;5032698;28;20026;-30
2023/04/09 00:34:00;;;;;;;4.07;2.45;;;;;;;14.00;46.97;96410.94;5033986;28;20366;-32
2023/04/09 00:36:25;;;;;;;3.72;2.60;;;;;;;14.03;47.02;96409.28;5041181;28;20133;-30
2023/04/09 00:38:52;;;;;;;6.40;2.42;;;;;;;13.94;47.37;96407.28;5034110;28;20079;-30
2023/04/09 00:41:18;;;;;;;3.47;2.30;;;;;;;13.92;47.20;96409.72;5041201;28;20028;-31
2023/04/09 00:43:44;;;;;;;2.45;2.20;;;;;;;13.91;47.38;96407.41;5038623;28;20040;-30
2023/04/09 00:46:10;;;;;;;6.25;2.78;;;;;;;13.99;46.92;96411.38;5035129;28;20021;-30
2023/04/09 00:48:35;;;;;;;4.25;2.50;;;;;;;13.71;47.49;96404.31;5032541;28;20075;-30
2023/04/09 00:51:01;;;;;;;4.88;2.45;;;;;;;13.84;47.19;96405.75;5033652;28;20040;-30
2023/04/09 00:53:27;;;;;;;4.32;2.20;;;;;;;14.02;46.85;96411.25;5036998;28;20018;-30
2023/04/09 00:55:54;;;;;;;3.85;2.30;;;;;;;14.02;46.42;96403.06;5036502;28;20033;-30
2023/04/09 00:58:19;;;;;;;4.70;2.50;;;;;;;14.14;46.52;96414.31;5040700;28;20021;-30
2023/04/09 01:00:45;;;;;;;3.20;2.20;;;;;;;13.84;47.08;96413.91;5041036;28;20376;-30
2023/04/09 01:03:11;;;;;;;3.85;2.20;;;;;;;13.84;47.51;96408.47;5033573;28;20037;-30
2023/04/09 01:05:47;;;;;;;4.20;2.45;;;;;;;13.98;46.92;96410.63;5032899;28;20464;-30
2023/04/09 01:08:28;;;;;;;4.90;2.35;;;;;;;13.91;47.23;96419.09;5033588;28;20544;-30
2023/04/09 01:10:53;;;;;;;3.50;2.00;;;;;;;13.88;47.06;96414.53;5027039;28;20029;-30
2023/04/09 01:13:22;;;;;;;2.45;2.10;;;;;;;13.81;47.31;96411.31;5047955;28;20028;-29
2023/04/09 01:15:52;;;;;;;4.32;2.38;;;;;;;13.77;47.34;96414.19;5033912;28;20029;-30
2023/04/09 01:18:27;;;;;;;3.75;2.35;;;;;;;13.94;46.84;96410.03;5040584;28;20022;-30
2023/04/09 01:21:21;;;;;;;4.65;2.28;;;;;;;13.81;47.29;96416.78;5033726;28;20021;-30
2023/04/09 01:23:57;;;;;;;3.70;2.08;;;;;;;13.94;46.92;96420.16;5033557;28;20492;-29
2023/04/09 01:26:28;;;;;;;3.72;1.92;;;;;;;13.98;46.95;96418.81;5041474;28;20028;-31
2023/04/09 01:28:55;;;;;;;4.25;2.15;;;;;;;13.94;47.16;96422.91;5039530;28;20021;-31
2023/04/09 01:31:28;;;;;;;5.32;2.17;;;;;;;13.98;46.70;96416.06;5043322;28;20013;-30
2023/04/09 01:33:54;;;;;;;4.60;2.97;;;;;;;13.84;47.31;96415.88;5037879;28;20033;-30
2023/04/09 01:36:23;;;;;;;4.43;2.10;;;;;;;13.79;47.45;96417.22;5037627;28;20021;-30
2023/04/09 01:38:50;;;;;;;2.58;1.88;;;;;;;14.02;46.61;96403.06;5036898;28;20423;-30
2023/04/09 01:41:20;;;;;;;3.08;2.13;;;;;;;13.70;47.29;96403.56;5044452;28;20029;-30
2023/04/09 01:43:48;;;;;;;7.38;3.45;;;;;;;13.91;47.02;96397.28;5047156;28;20025;-30
2023/04/09 01:46:15;;;;;;;4.38;2.30;;;;;;;13.79;47.18;96398.13;5044752;28;20030;-30
2023/04/09 01:48:42;;;;;;;2.90;2.15;;;;;;;13.85;46.94;96388.16;5035791;28;20025;-30
2023/04/09 01:51:07;;;;;;;4.40;2.00;;;;;;;13.88;46.75;96398.16;5037392;28;20021;-30
2023/04/09 01:53:33;;;;;;;6.15;2.33;;;;;;;13.82;46.86;96393.75;5040805;28;20020;-30
2023/04/09 01:56:00;;;;;;;2.80;2.17;;;;;;;13.85;46.70;96399.06;5040790;28;20014;-29
2023/04/09 01:58:26;;;;;;;2.85;2.38;;;;;;;13.93;46.78;96392.13;5038998;28;20103;-30
2023/04/09 02:00:58;;;;;;;3.85;2.17;;;;;;;13.84;46.81;96394.84;5042120;28;20075;-30
2023/04/09 02:03:32;;;;;;;2.45;1.80;;;;;;;13.82;47.00;96389.06;5036752;28;20057;-30
2023/04/09 02:06:14;;;;;;;3.33;2.17;;;;;;;13.82;46.88;96389.06;5036886;28;20029;-30
2023/04/09 02:08:45;;;;;;;2.25;1.70;;;;;;;13.78;47.03;96388.44;5044129;28;20028;-31
2023/04/09 02:11:11;;;;;;;2.80;1.98;;;;;;;13.85;46.72;96403.75;5036646;28;20108;-30
2023/04/09 02:13:38;;;;;;;3.13;1.90;;;;;;;14.02;46.58;96396.84;5036599;28;20021;-30
2023/04/09 02:16:05;;;;;;;5.15;1.98;;;;;;;13.91;46.83;96410.16;5043622;28;20053;-30
2023/04/09 02:18:31;;;;;;;2.50;1.67;;;;;;;13.80;47.06;96401.63;5043438;28;20072;-30
2023/04/09 02:20:58;;;;;;;3.55;1.70;;;;;;;13.90;46.88;96401.22;5036795;28;20021;-30
2023/04/09 02:23:24;;;;;;;3.35;2.30;;;;;;;13.88;46.61;96405.59;5036627;28;20025;-30
2023/04/09 02:25:51;;;;;;;3.60;2.25;;;;;;;13.85;47.10;96401.03;5036663;28;20033;-31
2023/04/09 02:28:17;;;;;;;6.15;1.88;;;;;;;13.85;47.20;96409.19;5041066;28;20025;-30
2023/04/09 02:30:43;;;;;;;4.53;2.03;;;;;;;13.95;46.99;96408.06;5038690;28;20037;-31
2023/04/09 02:33:08;;;;;;;2.25;1.75;;;;;;;13.91;46.63;96402.72;5043709;28;20536;-30
2023/04/09 02:35:34;;;;;;;3.88;2.10;;;;;;;13.84;47.11;96404.97;5036297;28;20094;-30
2023/04/09 02:37:59;;;;;;;2.63;2.22;;;;;;;13.82;47.14;96405.44;5035396;28;20017;-30
2023/04/09 02:40:25;;;;;;;2.90;1.90;;;;;;;13.78;47.43;96407.53;5036333;28;20030;-30
2023/04/09 02:42:51;;;;;;;2.22;1.90;;;;;;;13.86;46.74;96413.44;5035819;28;20108;-30
2023/04/09 02:45:16;;;;;;;2.78;2.20;;;;;;;13.93;47.02;96413.19;5043077;28;20033;-30
2023/04/09 02:47:42;;;;;;;2.88;2.20;;;;;;;13.81;47.44;96409.34;5038739;28;20024;-30
2023/04/09 02:50:07;;;;;;;3.97;2.28;;;;;;;13.82;47.07;96405.44;5037616;28;20377;-30
2023/04/09 02:52:33;;;;;;;4.22;2.20;;;;;;;13.77;47.63;96421.59;5036045;28;20049;-30
2023/04/09 02:54:58;;;;;;;3.45;2.20;;;;;;;13.85;47.25;96404.50;5043137;28;20045;-30
2023/04/09 02:57:24;;;;;;;4.75;2.05;;;;;;;14.03;47.12;96407.31;5037793;28;20025;-30
2023/04/09 02:59:49;;;;;;;3.22;1.80;;;;;;;13.83;47.80;96406.19;5041253;28;20026;-30
2023/04/09 03:02:14;;;;;;;3.45;2.25;;;;;;;13.96;47.17;96412.31;5042966;28;20037;-32
2023/04/09 03:04:40;;;;;;;5.07;2.10;;;;;;;13.96;47.37;96412.31;5042966;28;20021;-30
2023/04/09 03:07:06;;;;;;;4.85;1.95;;;;;;;13.97;47.39;96403.66;5035516;28;20017;-30
2023/04/09 03:09:31;;;;;;;4.78;2.13;;;;;;;13.93;46.88;96405.78;5035985;28;20365;-30
2023/04/09 03:11:56;;;;;;;6.03;2.78;;;;;;;14.07;46.86;96400.97;5039800;28;20048;-30
2023/04/09 03:14:23;;;;;;;2.30;1.95;;;;;;;13.93;47.35;96405.78;5045169;28;20043;-30
2023/04/09 03:16:48;;;;;;;2.83;1.95;;;;;;;14.06;47.40;96418.53;5036136;28;20056;-30
2023/04/09 03:19:14;;;;;;;7.40;2.20;;;;;;;13.68;47.82;96414.13;5035493;28;20500;-30
2023/04/09 03:21:40;;;;;;;2.67;1.95;;;;;;;14.03;47.28;96412.00;5035173;28;20032;-29
2023/04/09 03:24:05;;;;;;;2.17;1.90;;;;;;;13.89;47.64;96402.41;5035616;28;20108;-30
2023/04/09 03:26:35;;;;;;;2.75;2.13;;;;;;;13.95;47.23;96400.63;5035227;28;20480;-30
2023/04/09 03:29:02;;;;;;;3.97;2.10;;;;;;;13.82;47.57;96399.22;5042931;28;20024;-30
2023/04/09 03:31:27;;;;;;;4.05;2.20;;;;;;;14.02;47.20;96407.75;5042443;28;20022;-30
2023/04/09 03:33:53;;;;;;;3.72;2.30;;;;;;;13.91;47.17;96400.00;5042559;28;20023;-30
2023/04/09 03:36:18;;;;;;;4.88;2.10;;;;;;;13.84;47.75;96408.47;5034839;28;20030;-30
2023/04/09 03:38:44;;;;;;;4.13;1.90;;;;;;;13.99;46.90;96400.47;5035145;28;20033;-30
2023/04/09 03:41:10;;;;;;;4.45;1.70;;;;;;;13.94;46.97;96406.53;5035555;28;20384;-30
2023/04/09 03:43:35;;;;;;;4.53;2.00;;;;;;;14.00;46.88;96416.38;5035148;28;20075;-30
2023/04/09 03:46:00;;;;;;;2.47;1.80;;;;;;;13.83;47.78;96406.19;5034813;28;20075;-31
2023/04/09 03:48:26;;;;;;;2.90;1.67;;;;;;;13.95;47.22;96410.78;5042210;28;20492;-30
2023/04/09 03:50:52;;;;;;;2.55;1.80;;;;;;;13.92;46.85;96415.16;5042225;28;20056;-30
2023/04/09 03:53:18;;;;;;;3.55;2.00;;;;;;;13.90;47.32;96405.91;5036313;28;20051;-30
2023/04/09 03:55:43;;;;;;;3.55;2.05;;;;;;;13.69;47.84;96409.44;5040721;28;20317;-30
2023/04/09 03:58:10;;;;;;;2.63;2.00;;;;;;;13.92;47.39;96414.41;5034441;28;20021;-33
2023/04/09 04:00:35;;;;;;;4.30;2.45;;;;;;;14.08;46.71;96413.41;5042201;28;20056;-30
2023/04/09 04:03:01;;;;;;;5.53;2.25;;;;;;;13.82;47.33;96421.78;5040385;28;20120;-30
2023/04/09 04:05:26;;;;;;;3.33;1.98;;;;;;;14.02;46.69;96419.44;5036230;28;20030;-30
2023/04/09 04:07:52;;;;;;;2.85;1.98;;;;;;;13.89;47.14;96418.78;5040713;28;20028;-30
2023/04/09 04:10:18;;;;;;;2.60;2.05;;;;;;;14.05;46.82;96415.06;5034130;28;20470;-32
2023/04/09 04:12:44;;;;;;;4.28;2.20;;;;;;;13.94;47.36;96415.47;5035007;28;20056;-30
2023/04/09 04:15:09;;;;;;;3.08;2.13;;;;;;;14.01;46.76;96417.91;5034379;28;20156;-30
2023/04/09 04:17:35;;;;;;;3.50;2.22;;;;;;;13.99;47.22;96420.31;5041181;28;20032;-31
2023/04/09 04:20:00;;;;;;;3.90;2.33;;;;;;;13.81;47.48;96424.94;5041601;28;20021;-30
2023/04/09 04:22:26;;;;;;;4.00;2.17;;;;;;;13.94;47.13;96431.84;5040892;28;20021;-30
2023/04/09 04:24:51;;;;;;;3.97;2.45;;;;;;;13.80;47.49;96432.38;5033644;28;20852;-30
2023/04/09 04:27:16;;;;;;;5.00;2.28;;;;;;;13.84;47.54;96430.28;5034255;28;20488;-30
2023/04/09 04:29:42;;;;;;;2.72;2.20;;;;;;;13.76;47.34;96428.25;5034342;28;20075;-30
2023/04/09 04:32:07;;;;;;;3.08;2.20;;;;;;;13.64;47.61;96429.84;5034140;28;20381;-30
2023/04/09 04:34:33;;;;;;;4.97;2.22;;;;;;;13.71;47.98;96434.28;5034271;28;20043;-30
2023/04/09 04:36:58;;;;;;;2.10;1.95;;;;;;;13.63;48.05;96444.69;5029641;28;20022;-31
2023/04/09 04:39:24;;;;;;;3.83;2.38;;;;;;;13.80;47.23;96429.63;5041405;28;20044;-31
2023/04/09 04:41:49;;;;;;;4.10;2.53;;;;;;;13.68;47.87;96433.22;5033814;28;20030;-30
2023/04/09 04:44:15;;;;;;;6.18;2.78;;;;;;;13.59;48.24;96441.34;5034496;28;20017;-30
2023/04/09 04:46:40;;;;;;;4.72;3.10;;;;;;;13.94;47.26;96436.53;5033895;28;20052;-30
2023/04/09 04:49:06;;;;;;;3.72;2.75;;;;;;;13.84;47.66;96437.69;5034367;28;20029;-30
2023/04/09 04:51:31;;;;;;;4.93;2.70;;;;;;;13.68;48.06;96452.28;5037160;28;20044;-30
2023/04/09 04:53:56;;;;;;;5.82;2.90;;;;;;;13.60;47.83;96451.00;5037541;28;20021;-31
2023/04/09 04:56:22;;;;;;;4.30;2.60;;;;;;;13.82;47.58;96448.28;5040858;28;20421;-30
2023/04/09 04:58:47;;;;;;;4.40;3.22;;;;;;;13.72;47.63;96452.94;5038058;28;20396;-31
2023/04/09 05:01:13;;;;;;;3.50;2.35;;;;;;;13.85;47.56;96450.09;5035610;28;20366;-30
2023/04/09 05:03:38;;;;;;;4.20;2.67;;;;;;;13.61;48.54;96456.03;5033880;28;20045;-30
2023/04/09 05:06:04;;;;;;;7.32;2.55;;;;;;;13.69;48.06;96453.81;5033590;28;20113;-31
2023/04/09 05:08:29;;;;;;;4.50;2.45;;;;;;;13.78;47.94;96448.41;5041094;28;20029;-30
2023/04/09 05:10:55;;;;;;;4.25;2.08;;;;;;;13.88;47.79;96447.25;5037577;28;20028;-30
2023/04/09 05:13:21;;;;;;;5.75;2.20;;;;;;;13.54;48.41;96452.81;5036771;28;20051;-30
2023/04/09 05:15:46;;;;;;;4.93;2.20;;;;;;;13.77;47.92;96467.94;5033814;28;20017;-30
2023/04/09 05:18:12;;;;;;;4.20;2.38;;;;;;;13.75;48.22;96454.75;5040051;28;20151;-30
2023/04/09 05:20:37;;;;;;;3.65;2.40;;;;;;;13.71;48.51;96465.03;5034015;28;20044;-32
2023/04/09 05:23:03;;;;;;;4.43;3.13;;;;;;;13.58;48.48;96465.09;5032078;28;20018;-30
2023/04/09 05:25:28;;;;;;;3.22;2.53;;;;;;;13.61;48.45;96466.91;5040641;28;20033;-30
2023/04/09 05:27:54;;;;;;;5.43;2.17;;;;;;;13.82;48.21;96475.53;5033720;28;20092;-30
2023/04/09 05:30:20;;;;;;;5.43;2.63;;;;;;;13.68;48.30;96474.09;5033362;28;20022;-30
2023/04/09 05:32:46;;;;;;;6.78;2.45;;;;;;;13.75;48.12;96475.78;5033714;28;20381;-30
2023/04/09 05:35:11;;;;;;;5.53;2.90;;;;;;;13.71;48.28;96486.84;5033392;28;20029;-30
2023/04/09 05:37:37;;;;;;;2.47;2.13;;;;;;;13.83;48.54;96483.28;5039100;28;20025;-30
2023/04/09 05:40:03;;;;;;;3.03;2.28;;;;;;;13.71;48.70;96475.19;5035625;28;20104;-32
2023/04/09 05:42:28;;;;;;;3.03;1.83;;;;;;;13.66;49.10;96481.94;5039406;28;20022;-30
2023/04/09 05:44:54;;;;;;;3.20;2.60;;;;;;;13.65;49.29;96485.88;5033177;28;20079;-30
2023/04/09 05:47:20;;;;;;;4.18;2.20;;;;;;;13.75;48.70;96492.91;5033394;28;20079;-32
2023/04/09 05:49:45;;;;;;;2.90;2.40;;;;;;;13.81;48.74;96485.69;5033374;28;20033;-30
2023/04/09 05:52:11;;;;;;;4.35;2.10;;;;;;;13.84;49.17;96487.53;5033260;28;20014;-30
2023/04/09 05:54:36;;;;;;;3.30;2.30;;;;;;;13.79;48.96;96482.63;5033069;28;20024;-30
2023/04/09 05:57:02;;;;;;;2.80;2.10;;;;;;;13.74;49.48;96479.72;5040106;28;20023;-30
2023/04/09 05:59:28;;;;;;;5.47;2.70;;;;;;;13.82;49.27;96497.34;5040332;28;20385;-30
2023/04/09 06:01:53;;;;;;;3.58;2.47;;;;;;;13.86;49.31;96498.72;5033071;28;20441;-30
2023/04/09 06:04:19;;;;;;;5.93;3.60;;;;;;;13.66;49.98;96501.03;5033390;28;20048;-30
2023/04/09 06:06:45;;;;;;;4.00;2.35;;;;;;;13.88;48.70;96501.75;5031876;28;20013;-31
2023/04/09 06:09:11;;;;;;;4.53;2.40;;;;;;;13.79;49.42;96520.03;5033334;28;20010;-30
2023/04/09 06:11:37;;;;;;;4.07;2.13;;;;;;;14.02;49.13;96523.06;5040349;28;20028;-30
2023/04/09 06:14:02;;;;;;;3.17;2.20;;;;;;;13.79;48.96;96518.06;5043683;28;20412;-30
2023/04/09 06:16:28;;;;;;;2.95;2.30;;;;;;;14.04;48.39;96514.44;5036157;28;20031;-30
2023/04/09 06:18:55;;;;;;;3.13;2.50;;;;;;;13.81;49.04;96512.19;5044164;28;20582;-30
2023/04/09 06:21:21;;;;;;;3.33;2.30;;;;;;;13.94;49.01;96521.03;5036800;28;20048;-30
2023/04/09 06:23:46;;;;;;;2.78;2.40;;;;;;;13.77;49.21;96525.16;5036611;28;20025;-31
2023/04/09 06:26:12;;;;;;;3.03;2.20;;;;;;;13.91;48.65;96530.88;5040841;28;20066;-30
2023/04/09 06:28:38;;;;;;;2.35;2.08;;;;;;;13.99;48.96;96526.66;5039094;28;20025;-30
2023/04/09 06:31:04;;;;;;;2.20;1.90;;;;;;;13.90;49.13;96529.34;5043375;28;20024;-30
2023/04/09 06:33:29;;;;;;;3.13;1.90;;;;;;;13.86;49.21;96528.69;5036374;28;20071;-30
2023/04/09 06:35:55;;;;;;;3.53;2.00;;;;;;;13.89;49.52;96527.81;5043791;28;20444;-30
2023/04/09 06:38:20;;;;;;;3.05;1.73;;;;;;;14.01;49.09;96526.97;5036059;28;20021;-29
2023/04/09 06:40:46;;;;;;;2.45;1.88;;;;;;;13.93;48.91;96525.72;5036333;28;20022;-31
2023/04/09 06:43:11;;;;;;;2.60;1.75;;;;;;;13.95;49.09;96542.41;5043130;28;20112;-31
2023/04/09 06:45:37;;;;;;;3.33;1.90;;;;;;;13.95;49.24;96536.19;5038960;28;20070;-30
2023/04/09 06:48:03;;;;;;;3.13;1.80;;;;;;;13.84;49.38;96544.78;5038493;28;20033;-30
2023/04/09 06:50:28;;;;;;;2.28;1.75;;;;;;;14.16;48.59;96542.81;5036011;28;20021;-30
2023/04/09 06:52:54;;;;;;;2.45;1.70;;;;;;;14.10;48.77;96539.13;5036033;28;20479;-33
2023/04/09 06:55:20;;;;;;;2.67;1.88;;;;;;;14.05;49.13;96548.69;5044906;28;20028;-31
2023/04/09 06:57:46;;;;;;;3.80;1.50;;;;;;;14.20;48.62;96546.19;5041641;28;20439;-29
2023/04/09 07:00:12;;;;;;;2.88;2.05;;;;;;;14.06;48.90;96554.88;5042954;28;20070;-31
2023/04/09 07:02:37;;;;;;;3.25;2.38;;;;;;;14.12;48.57;96553.09;5035586;28;20120;-30
2023/04/09 07:05:03;;;;;;;3.03;2.13;;;;;;;14.15;48.68;96563.13;5035787;28;20349;-30
2023/04/09 07:07:29;;;;;;;2.50;2.20;;;;;;;14.14;48.93;96569.78;5036097;28;20100;-30
2023/04/09 07:09:55;;;;;;;3.10;2.38;;;;;;;14.03;48.63;96565.47;5042906;28;20032;-30
2023/04/09 07:12:31;;;;;;;2.55;1.90;;;;;;;14.08;49.35;96566.88;5042238;28;20142;-30
2023/04/09 07:14:57;;;;;;;3.40;2.25;;;;;;;14.08;48.83;96568.84;5028897;28;20022;-30
2023/04/09 07:17:23;;;;;;;5.97;2.47;;;;;;;14.00;49.17;96580.00;5042638;28;20538;-29
2023/04/09 07:19:50;;;;;;;3.05;2.28;;;;;;;14.03;49.30;96567.44;5035576;28;20025;-30
2023/04/09 07:22:16;;;;;;;2.45;2.25;;;;;;;13.94;49.45;96565.44;5035392;28;20021;-30
2023/04/09 07:24:41;;;;;;;4.78;2.25;;;;;;;13.98;49.53;96576.19;5035546;28;20358;-30
2023/04/09 07:27:06;;;;;;;4.38;2.25;;;;;;;14.00;49.34;96585.44;5042308;28;20014;-30
2023/04/09 07:29:32;;;;;;;2.70;1.98;;;;;;;14.04;49.24;96582.59;5042582;28;20036;-31
2023/04/09 07:31:59;;;;;;;3.30;2.03;;;;;;;14.15;48.69;96584.94;5035347;28;20022;-30
2023/04/09 07:34:25;;;;;;;2.45;1.90;;;;;;;14.13;48.85;96590.06;5035068;28;20033;-30
2023/04/09 07:36:51;;;;;;;3.40;1.98;;;;;;;14.29;48.29;96590.63;5042792;28;20026;-30
2023/04/09 07:39:17;;;;;;;2.42;1.77;;;;;;;14.19;48.89;96583.59;5035242;28;20477;-30
2023/04/09 07:41:42;;;;;;;2.90;2.10;;;;;;;14.35;48.72;96598.97;5041389;28;20393;-30
2023/04/09 07:44:08;;;;;;;3.33;2.33;;;;;;;14.36;48.63;96589.59;5035944;28;20022;-30
2023/04/09 07:46:33;;;;;;;3.08;2.28;;;;;;;14.15;48.63;96595.84;5033687;28;20029;-29
2023/04/09 07:48:59;;;;;;;3.10;2.15;;;;;;;14.30;48.35;96596.84;5034762;28;20033;-31
2023/04/09 07:51:24;;;;;;;3.17;2.10;;;;;;;14.19;48.22;96602.69;5035574;28;20024;-31
2023/04/09 07:53:50;;;;;;;5.07;2.33;;;;;;;14.32;48.19;96600.66;5040971;28;20013;-30
2023/04/09 07:56:15;;;;;;;4.72;3.22;;;;;;;14.33;48.25;96602.19;5043392;28;20108;-30
2023/04/09 07:58:41;;;;;;;3.92;2.20;;;;;;;14.41;48.23;96604.66;5045918;28;20376;-30
2023/04/09 08:01:07;;;;;;;2.78;2.10;;;;;;;14.36;48.77;96600.50;5037683;28;20021;-30
2023/04/09 08:03:35;;;;;;;2.35;2.15;;;;;;;14.54;48.34;96600.63;5034863;28;20095;-30
2023/04/09 08:06:00;;;;;;;2.65;2.03;;;;;;;14.39;48.67;96605.06;5034747;28;20376;-30
2023/04/09 08:08:26;;;;;;;2.97;2.30;;;;;;;14.49;48.82;96606.66;5034712;28;20025;-32
2023/04/09 08:10:52;;;;;;;3.10;2.05;;;;;;;14.65;48.38;96613.88;5038204;28;20025;-30
2023/04/09 08:13:17;;;;;;;3.50;1.92;;;;;;;14.66;48.58;96613.44;5036470;28;20019;-30
2023/04/09 08:15:43;;;;;;;2.38;1.92;;;;;;;14.54;48.17;96611.56;5041496;28;20029;-31
2023/04/09 08:18:08;;;;;;;2.75;2.10;;;;;;;14.53;48.84;96612.00;5041865;28;20064;-31
2023/04/09 08:20:34;;;;;;;2.97;2.30;;;;;;;14.57;48.14;96607.94;5034546;28;20075;-31
2023/04/09 08:23:02;;;;;;;2.60;1.98;;;;;;;14.80;48.01;96612.13;5034287;28;20049;-30
2023/04/09 08:25:28;;;;;;;2.20;1.70;;;;;;;14.47;49.35;96606.34;5034395;28;20025;-30
2023/04/09 08:27:53;;;;;;;3.17;1.92;;;;;;;14.87;47.76;96606.38;5041403;28;20017;-29
2023/04/09 08:30:19;;;;;;;3.25;2.17;;;;;;;14.63;48.32;96614.31;5038768;28;20032;-30
2023/04/09 08:32:45;;;;;;;2.63;2.10;;;;;;;14.83;48.44;96607.75;5036218;28;20112;-30
2023/04/09 08:35:12;;;;;;;3.22;2.33;;;;;;;14.77;48.27;96617.72;5033351;28;20105;-31
2023/04/09 08:37:37;;;;;;;3.92;2.20;;;;;;;14.96;48.00;96613.84;5034130;28;20025;-31
2023/04/09 08:40:03;;;;;;;3.35;2.33;;;;;;;14.91;48.28;96606.25;5034136;28;20032;-30
2023/04/09 08:42:30;;;;;;;4.20;2.85;;;;;;;14.93;48.01;96615.50;5033381;28;20029;-30
2023/04/09 08:44:56;;;;;;;3.85;2.67;;;;;;;14.90;47.92;96610.19;5040700;28;20034;-31
2023/04/09 08:47:22;;;;;;;3.13;2.60;;;;;;;14.91;48.44;96606.25;5041575;28;20412;-31
2023/04/09 08:49:49;;;;;;;3.40;2.70;;;;;;;14.97;49.22;96609.88;5033856;28;20036;-29
2023/04/09 08:52:16;;;;;;;2.90;2.50;;;;;;;14.98;48.45;96617.63;5033887;28;20047;-30
2023/04/09 08:54:41;;;;;;;2.92;2.40;;;;;;;15.01;48.44;96611.28;5033745;28;20039;-31
2023/04/09 08:57:07;;;;;;;3.15;2.40;;;;;;;15.07;48.36;96614.19;5033413;28;20384;-30
2023/04/09 08:59:35;;;;;;;3.20;2.47;;;;;;;15.01;48.68;96615.97;5049782;28;20013;-31
2023/04/09 09:02:08;;;;;;;6.50;3.50;;;;;;;15.08;48.02;96615.72;5037805;28;20394;-31
2023/04/09 09:04:48;;;;;;;13.00;6.32;;;;;;;15.04;47.82;96615.09;5040917;28;20252;-30
2023/04/09 09:07:14;;;;;;;9.85;4.93;;;;;;;15.23;47.04;96613.16;5033732;28;20029;-30
2023/04/09 09:09:58;;;;;;;11.73;6.20;;;;;;;15.09;47.18;96619.94;5041272;28;20025;-32
2023/04/09 09:12:41;;;;;;;9.88;4.72;;;;;;;15.19;47.37;96618.00;5033622;28;20458;-30
2023/04/09 09:15:27;;;;;;;6.30;3.40;;;;;;;15.17;47.58;96623.94;5028599;28;20029;-30
2023/04/09 09:17:57;;;;;;;5.03;2.80;;;;;;;15.07;47.86;96620.41;5047907;28;20022;-32
2023/04/09 09:20:25;;;;;;;5.78;3.28;;;;;;;15.30;47.32;96626.53;5040716;28;20096;-31
2023/04/09 09:22:52;;;;;;;3.45;2.20;;;;;;;15.37;47.29;96620.78;5033965;28;20045;-30
2023/04/09 09:25:22;;;;;;;4.90;2.70;;;;;;;15.28;47.40;96620.75;5033374;28;20491;-31
2023/04/09 09:27:47;;;;;;;3.42;2.35;;;;;;;15.36;47.15;96624.72;5033592;28;20041;-30
2023/04/09 09:30:20;;;;;;;2.65;2.03;;;;;;;15.19;47.58;96632.44;5032478;28;20474;-30
2023/04/09 09:32:46;;;;;;;2.15;1.75;;;;;;;15.09;48.19;96628.91;5032127;28;20427;-30
2023/04/09 09:35:12;;;;;;;2.42;1.77;;;;;;;15.12;46.99;96632.69;5026025;28;20044;-30
2023/04/09 09:37:37;;;;;;;3.60;1.60;;;;;;;15.15;47.23;96642.75;5033438;28;20022;-30
2023/04/09 09:40:03;;;;;;;3.72;1.73;;;;;;;15.48;46.36;96631.25;5034176;28;20096;-31
2023/04/09 09:42:29;;;;;;;3.20;2.25;;;;;;;15.30;46.30;96624.56;5039426;28;20028;-31
2023/04/09 09:44:55;;;;;;;5.80;2.50;;;;;;;15.35;46.63;96632.16;5033147;28;20029;-31
2023/04/09 09:47:22;;;;;;;2.50;1.85;;;;;;;15.30;46.28;96632.75;5042541;28;20025;-30
2023/04/09 09:49:49;;;;;;;3.55;2.03;;;;;;;15.49;46.14;96636.28;5044224;28;20045;-30
2023/04/09 09:52:15;;;;;;;2.70;2.08;;;;;;;15.31;46.80;96631.56;5037441;28;20029;-30
2023/04/09 09:54:42;;;;;;;4.15;1.90;;;;;;;15.29;46.55;96639.44;5037099;28;20021;-30
2023/04/09 09:57:14;;;;;;;2.92;2.10;;;;;;;15.40;46.05;96644.47;5037063;28;20017;-30
2023/04/09 09:59:42;;;;;;;2.45;1.70;;;;;;;15.36;46.33;96639.13;5036767;28;20096;-30
2023/04/09 10:02:17;;;;;;;2.70;1.90;;;;;;;15.29;46.07;96636.72;5043742;28;20029;-30
2023/04/09 10:04:43;;;;;;;2.65;1.85;;;;;;;15.42;45.91;96637.34;5032999;28;20024;-31
2023/04/09 10:07:09;;;;;;;4.40;2.22;;;;;;;15.41;46.18;96643.25;5040676;28;20022;-30
2023/04/09 10:09:37;;;;;;;2.95;1.77;;;;;;;15.49;45.90;96639.00;5036980;28;20033;-31
2023/04/09 10:12:05;;;;;;;4.03;1.90;;;;;;;15.43;46.09;96647.06;5036932;28;20014;-30
2023/04/09 10:14:32;;;;;;;4.55;1.73;;;;;;;15.39;46.04;96635.50;5036776;28;20556;-30
2023/04/09 10:16:58;;;;;;;2.25;1.80;;;;;;;15.38;46.44;96634.00;5040551;28;20087;-30
2023/04/09 10:19:24;;;;;;;1.60;1.50;;;;;;;15.43;46.18;96629.91;5047593;28;20053;-30
2023/04/09 10:21:55;;;;;;;2.88;1.90;;;;;;;15.51;46.36;96642.06;5043838;28;21154;-31
2023/04/09 10:24:21;;;;;;;2.83;1.80;;;;;;;15.42;47.23;96642.06;5036676;28;20013;-31
2023/04/09 10:26:46;;;;;;;2.20;1.77;;;;;;;15.40;46.92;96634.28;5036283;28;20032;-30
2023/04/09 10:29:14;;;;;;;6.05;2.00;;;;;;;15.34;47.03;96632.59;5036312;28;20025;-30
2023/04/09 10:32:03;;;;;;;2.47;2.05;;;;;;;15.67;45.71;96625.41;5036316;28;20108;-30
2023/04/09 10:34:28;;;;;;;2.88;1.88;;;;;;;15.67;45.77;96632.84;5036862;28;20021;-31
2023/04/09 10:36:58;;;;;;;2.72;1.90;;;;;;;15.58;46.57;96624.66;5045551;28;20106;-31
2023/04/09 10:39:30;;;;;;;3.60;1.92;;;;;;;15.66;46.13;96614.91;5042644;28;20465;-30
2023/04/09 10:41:57;;;;;;;3.50;2.10;;;;;;;15.60;46.16;96619.47;5043092;28;20025;-31
2023/04/09 10:44:25;;;;;;;4.88;2.35;;;;;;;15.54;46.30;96613.06;5036295;28;20396;-30
2023/04/09 10:46:54;;;;;;;3.70;2.40;;;;;;;15.63;45.92;96626.75;5030109;28;20026;-30
2023/04/09 10:49:25;;;;;;;2.95;2.15;;;;;;;15.73;45.51;96622.81;5036408;28;20025;-30
2023/04/09 10:52:01;;;;;;;4.70;2.05;;;;;;;15.56;45.24;96629.81;5043179;28;20017;-31
2023/04/09 10:54:32;;;;;;;3.95;2.20;;;;;;;15.76;45.22;96624.63;5043379;28;20483;-30
2023/04/09 10:57:06;;;;;;;2.78;2.03;;;;;;;15.93;44.88;96627.84;5035857;28;20083;-31
2023/04/09 10:59:36;;;;;;;3.78;1.85;;;;;;;15.82;44.85;96630.28;5041304;28;20461;-31
2023/04/09 11:02:05;;;;;;;2.78;2.20;;;;;;;15.60;44.49;96641.31;5035325;28;20033;-32
2023/04/09 11:04:36;;;;;;;3.42;2.03;;;;;;;15.83;44.36;96635.25;5036023;28;20147;-30
2023/04/09 11:07:04;;;;;;;2.67;2.10;;;;;;;15.53;44.59;96630.66;5041455;28;20032;-30
2023/04/09 11:09:34;;;;;;;2.97;1.90;;;;;;;15.57;44.72;96634.06;5036459;28;20029;-31
2023/04/09 11:12:00;;;;;;;5.05;3.15;;;;;;;15.72;44.36;96627.53;5041468;28;20025;-30
2023/04/09 11:14:26;;;;;;;3.83;2.33;;;;;;;15.71;44.45;96620.53;5035459;28;20029;-32
2023/04/09 11:16:51;;;;;;;4.90;3.35;;;;;;;15.60;44.41;96627.66;5038338;28;20418;-30
2023/04/09 11:19:19;;;;;;;4.80;2.63;;;;;;;15.71;44.79;96627.97;5034434;28;20017;-31
2023/04/09 11:21:46;;;;;;;5.60;2.53;;;;;;;15.75;44.18;96634.06;5035923;28;20036;-31
2023/04/09 11:24:12;;;;;;;3.60;2.20;;;;;;;15.70;43.88;96634.69;5042629;28;20044;-31
2023/04/09 11:26:38;;;;;;;4.30;2.20;;;;;;;15.68;43.48;96634.38;5042517;28;20087;-30
2023/04/09 11:29:06;;;;;;;2.47;1.90;;;;;;;15.70;43.89;96631.94;5035714;28;20469;-31
2023/04/09 11:31:31;;;;;;;2.60;2.22;;;;;;;15.78;43.83;96633.91;5034944;28;20026;-30
2023/04/09 11:33:57;;;;;;;3.72;2.00;;;;;;;15.80;43.67;96631.50;5035335;28;20392;-31